Terminal Aerodrome Forecast
Issued by NWS

Home | Current Version | Previous Version | Graphics & Text | Print | Product List | Glossary On
Versions: 1 2 3 4 5 6 7 8 9 10 11 12 13 14 15 16 17
500
FTUS43 KICT 270520
TAFCNU
TAF
KCNU 270520Z 2706/2806 VRB03KT P6SM SCT080
     FM271500 12003KT P6SM SCT025
     FM271800 10007KT P6SM BKN035=

USA.gov is the U.S. government's official web portal to all federal, state and local government web resources and services.